Time;durP1;ratioP1;P1;durP2;ratioP2;P2;SDS_P1;SDS_P2;PMS_P1;PMS_P2;Temp;Humidity;BMP_temperature;BMP_pressure;BME280_temperature;BME280_humidity;BME280_pressure;Samples;Min_cycle;Max_cycle;Signal;HPM_P1;HPM_P2
2022/08/30 06:31:43;;;;;;;13.73;7.57;;;18.40;99.90;;;;;;5131103;27;20946;-75
2022/08/30 06:34:11;;;;;;;7.93;7.13;;;18.60;99.90;;;;;;5125901;27;20209;-77
2022/08/30 06:36:41;;;;;;;11.20;8.57;;;19.00;99.90;;;;;;5129542;27;20213;-78
2022/08/30 06:39:11;;;;;;;8.63;7.73;;;19.70;99.90;;;;;;5130215;28;20194;-77
2022/08/30 06:41:41;;;;;;;8.03;7.30;;;20.10;99.90;;;;;;5126973;27;20577;-77
2022/08/30 06:44:11;;;;;;;7.87;7.13;;;20.60;99.90;;;;;;5130168;28;20296;-78
2022/08/30 06:46:43;;;;;;;7.43;6.40;;;21.00;99.90;;;;;;5110472;27;20217;-79
2022/08/30 06:49:12;;;;;;;7.43;6.40;;;21.30;99.90;;;;;;5125034;28;20221;-77
2022/08/30 06:51:45;;;;;;;6.90;6.03;;;21.40;99.90;;;;;;5128570;28;20237;-78
2022/08/30 06:54:19;;;;;;;6.70;6.07;;;21.70;99.90;;;;;;5125796;27;20234;-76
2022/08/30 06:56:52;;;;;;;7.30;6.30;;;22.00;99.90;;;;;;5109470;28;20221;-77
2022/08/30 06:59:27;;;;;;;8.33;6.57;;;22.40;99.90;;;;;;5109400;28;20283;-75
2022/08/30 07:01:57;;;;;;;7.73;6.27;;;22.80;99.90;;;;;;5108905;28;20660;-77
2022/08/30 07:04:28;;;;;;;7.90;6.50;;;23.00;99.90;;;;;;5109554;28;20213;-77
2022/08/30 07:06:58;;;;;;;11.73;6.73;;;23.20;99.90;;;;;;5108306;28;20275;-75
2022/08/30 07:09:27;;;;;;;8.00;6.82;;;23.80;99.90;;;;;;5107710;28;20435;-78
2022/08/30 07:11:56;;;;;;;9.03;6.80;;;23.90;99.90;;;;;;5103332;28;20293;-77
2022/08/30 07:14:24;;;;;;;7.10;6.40;;;23.80;99.90;;;;;;5109140;28;20226;-75
2022/08/30 07:16:52;;;;;;;7.73;6.37;;;23.80;99.90;;;;;;5108895;28;20233;-77
2022/08/30 07:19:21;;;;;;;9.50;6.40;;;24.10;99.90;;;;;;5108374;28;20206;-77
2022/08/30 07:21:50;;;;;;;7.40;6.20;;;24.20;99.90;;;;;;5106571;28;20289;-76
2022/08/30 07:24:20;;;;;;;8.27;5.57;;;24.80;99.90;;;;;;5107401;28;20297;-76
2022/08/30 07:26:50;;;;;;;8.70;6.35;;;26.30;99.90;;;;;;5107571;28;20213;-76
2022/08/30 07:29:21;;;;;;;7.70;6.40;;;27.20;99.90;;;;;;5104970;28;20208;-76
2022/08/30 07:31:51;;;;;;;7.13;6.43;;;27.70;99.90;;;;;;5106875;28;20644;-76
2022/08/30 07:34:20;;;;;;;7.65;5.97;;;28.90;99.90;;;;;;5108354;28;20285;-76
2022/08/30 07:36:52;;;;;;;7.32;6.68;;;29.50;99.90;;;;;;5108462;28;20210;-76
2022/08/30 07:39:21;;;;;;;6.93;6.32;;;30.40;99.90;;;;;;5108603;28;20202;-76
2022/08/30 07:41:49;;;;;;;8.50;6.93;;;31.10;98.70;;;;;;5101374;28;20310;-76
2022/08/30 07:44:19;;;;;;;6.75;6.00;;;30.60;98.40;;;;;;5092813;28;20213;-77
2022/08/30 07:46:52;;;;;;;8.07;6.18;;;31.30;96.90;;;;;;5089229;28;20255;-78
2022/08/30 07:49:21;;;;;;;11.95;6.28;;;31.80;96.60;;;;;;5090175;28;20639;-76
2022/08/30 07:51:50;;;;;;;7.65;6.15;;;33.00;94.10;;;;;;5074520;28;20246;-77
2022/08/30 07:54:19;;;;;;;7.30;5.90;;;33.60;92.40;;;;;;5072791;28;20235;-76
2022/08/30 07:56:47;;;;;;;8.13;6.18;;;34.00;90.70;;;;;;5092745;28;20631;-77
2022/08/30 07:59:15;;;;;;;7.97;6.47;;;33.70;90.30;;;;;;5094461;28;20209;-77
2022/08/30 08:01:43;;;;;;;6.80;6.03;;;33.20;90.80;;;;;;5094039;28;20309;-79
2022/08/30 08:04:11;;;;;;;10.18;6.20;;;34.80;87.50;;;;;;5094368;28;20195;-78
2022/08/30 08:06:44;;;;;;;7.75;6.65;;;35.10;85.70;;;;;;5093518;28;20745;-77
2022/08/30 08:09:12;;;;;;;7.78;6.10;;;34.10;85.60;;;;;;5093360;28;20222;-77
2022/08/30 08:11:40;;;;;;;6.78;5.82;;;34.10;86.30;;;;;;5094139;28;20231;-77
2022/08/30 08:14:09;;;;;;;6.68;5.93;;;33.50;89.10;;;;;;5082534;28;20234;-77
2022/08/30 08:16:38;;;;;;;7.00;5.80;;;33.10;90.50;;;;;;5093159;28;20198;-79
2022/08/30 08:19:08;;;;;;;7.68;6.95;;;33.20;90.20;;;;;;5090854;28;20542;-77
2022/08/30 08:21:37;;;;;;;7.43;5.60;;;33.50;88.10;;;;;;5091907;28;20275;-77
2022/08/30 08:24:08;;;;;;;7.20;6.40;;;33.60;90.50;;;;;;5092278;28;20230;-78
2022/08/30 08:26:36;;;;;;;9.43;6.70;;;34.00;87.90;;;;;;5101100;28;20214;-77
2022/08/30 08:29:09;;;;;;;7.38;6.65;;;33.60;90.20;;;;;;5093438;28;20195;-78
2022/08/30 08:31:40;;;;;;;7.15;6.45;;;34.30;86.50;;;;;;5094639;28;20245;-80
2022/08/30 08:34:10;;;;;;;6.95;6.25;;;33.30;88.00;;;;;;5093634;28;20207;-78
2022/08/30 08:36:39;;;;;;;9.15;5.80;;;33.40;90.20;;;;;;5093256;28;20187;-78
2022/08/30 08:39:09;;;;;;;9.52;6.40;;;33.50;88.80;;;;;;5094154;28;20306;-79
2022/08/30 08:41:52;;;;;;;8.15;6.05;;;32.80;86.90;;;;;;5093431;28;20678;-79
2022/08/30 08:44:34;;;;;;;7.05;5.05;;;33.20;87.40;;;;;;5094599;28;20257;-80
2022/08/30 08:47:11;;;;;;;7.20;5.78;;;33.50;86.00;;;;;;5093973;28;20231;-80
2022/08/30 08:49:44;;;;;;;6.32;5.00;;;34.10;83.80;;;;;;5091536;28;20528;-81
2022/08/30 08:55:12;;;;;;;8.10;6.35;;;35.00;79.10;;;;;;5093291;28;20286;-80
2022/08/30 08:57:41;;;;;;;6.38;5.47;;;34.20;81.00;;;;;;5092983;28;20321;-77
2022/08/30 09:00:12;;;;;;;7.03;6.28;;;34.80;83.30;;;;;;5095105;28;20250;-78
2022/08/30 09:02:43;;;;;;;8.88;6.72;;;34.80;79.70;;;;;;5094891;28;20735;-79
2022/08/30 09:05:17;;;;;;;6.90;6.20;;;34.70;79.70;;;;;;5096413;28;20210;-79
2022/08/30 09:07:49;;;;;;;6.78;6.07;;;34.10;80.10;;;;;;5097065;28;20595;-77
2022/08/30 09:10:20;;;;;;;6.63;6.00;;;34.10;82.40;;;;;;5096236;28;20600;-78
2022/08/30 09:13:09;;;;;;;6.60;5.68;;;34.70;78.80;;;;;;5096326;28;20581;-78
2022/08/30 09:15:41;;;;;;;5.45;4.90;;;35.30;77.10;;;;;;5090311;28;20210;-78
2022/08/30 09:18:11;;;;;;;6.72;5.35;;;35.10;80.20;;;;;;5092767;28;20205;-78
2022/08/30 09:20:50;;;;;;;10.70;5.28;;;35.30;76.40;;;;;;5092973;28;20583;-79
2022/08/30 09:23:27;;;;;;;7.15;5.45;;;35.20;77.10;;;;;;5093705;28;20199;-78
2022/08/30 09:25:59;;;;;;;7.05;4.75;;;35.20;75.60;;;;;;5093921;28;20293;-79
2022/08/30 09:28:29;;;;;;;5.57;5.03;;;34.90;78.10;;;;;;5094078;28;20707;-78
2022/08/30 09:31:02;;;;;;;5.90;5.30;;;34.90;77.10;;;;;;5092023;28;20302;-78
2022/08/30 09:33:31;;;;;;;6.70;5.10;;;35.20;77.60;;;;;;5094404;28;20282;-77
2022/08/30 09:36:19;;;;;;;8.07;5.45;;;35.80;74.30;;;;;;5094914;28;20206;-78
2022/08/30 09:38:58;;;;;;;5.35;4.85;;;36.10;77.00;;;;;;5096872;28;20214;-79
2022/08/30 09:41:34;;;;;;;5.40;4.20;;;36.50;69.00;;;;;;5092724;28;20214;-80
2022/08/30 09:44:09;;;;;;;6.53;5.60;;;36.20;70.30;;;;;;5092625;28;20286;-80
2022/08/30 09:46:46;;;;;;;6.55;4.68;;;35.10;69.20;;;;;;5092999;28;20325;-77
2022/08/30 09:49:33;;;;;;;6.50;4.70;;;35.20;72.20;;;;;;5088691;28;20616;-81
2022/08/30 09:52:12;;;;;;;5.60;4.07;;;35.20;67.60;;;;;;5091399;28;20278;-78
2022/08/30 09:54:59;;;;;;;5.60;5.00;;;35.50;70.60;;;;;;5094018;28;20712;-80
2022/08/30 09:57:37;;;;;;;4.93;4.13;;;35.20;71.80;;;;;;5092917;28;20205;-78
2022/08/30 10:00:10;;;;;;;7.95;4.85;;;35.40;72.10;;;;;;5090503;28;20206;-80
2022/08/30 10:03:04;;;;;;;6.00;4.28;;;35.50;69.70;;;;;;5089774;28;20615;-81
2022/08/30 10:05:40;;;;;;;5.32;3.80;;;34.80;69.20;;;;;;5090491;28;20293;-77
2022/08/30 10:08:19;;;;;;;5.03;4.10;;;34.70;73.00;;;;;;5086539;28;20286;-79
2022/08/30 10:10:56;;;;;;;5.57;4.40;;;35.30;67.50;;;;;;5076001;28;20281;-78
2022/08/30 10:14:04;;;;;;;6.07;4.60;;;35.10;68.50;;;;;;5090874;28;20798;-80
2022/08/30 10:16:45;;;;;;;4.40;3.90;;;34.60;67.60;;;;;;5086158;28;20210;-78
2022/08/30 10:19:23;;;;;;;4.10;3.60;;;34.90;66.40;;;;;;5091537;28;20306;-79
2022/08/30 10:21:58;;;;;;;5.25;3.88;;;35.10;70.20;;;;;;5086704;28;20268;-81
2022/08/30 10:24:32;;;;;;;5.18;4.00;;;34.60;66.50;;;;;;5089032;28;20340;-78
2022/08/30 10:27:24;;;;;;;5.18;3.60;;;34.50;69.90;;;;;;5085827;28;20218;-80
2022/08/30 10:29:58;;;;;;;7.88;4.10;;;35.00;68.20;;;;;;5089770;28;20222;-79
2022/08/30 10:32:34;;;;;;;5.00;3.75;;;35.00;68.70;;;;;;5079445;28;20196;-79
2022/08/30 10:35:07;;;;;;;6.55;4.03;;;34.60;67.10;;;;;;5089938;28;20733;-80
2022/08/30 10:37:40;;;;;;;5.50;3.78;;;34.70;66.00;;;;;;5091433;28;20247;-79
2022/08/30 10:43:08;;;;;;;6.07;4.20;;;34.70;66.50;;;;;;5091623;28;20261;-75
2022/08/30 10:45:40;;;;;;;3.95;3.58;;;35.00;63.80;;;;;;5091391;28;20252;-79
2022/08/30 10:48:18;;;;;;;4.60;3.92;;;34.90;67.80;;;;;;5090936;28;20254;-77
2022/08/30 10:50:52;;;;;;;5.28;3.70;;;34.20;64.90;;;;;;5087506;28;20242;-77
2022/08/30 10:53:29;;;;;;;3.72;3.42;;;33.80;66.90;;;;;;5095591;28;20245;-77
2022/08/30 10:56:02;;;;;;;4.97;3.38;;;33.80;68.00;;;;;;5089817;28;20328;-79
2022/08/30 10:58:37;;;;;;;4.13;3.25;;;34.10;66.80;;;;;;5091439;28;20199;-77
2022/08/30 11:01:21;;;;;;;3.60;3.28;;;34.30;67.50;;;;;;5091313;28;20651;-79
2022/08/30 11:04:35;;;;;;;3.90;3.53;;;34.90;63.50;;;;;;5091200;28;20556;-78
2022/08/30 11:07:16;;;;;;;3.90;3.22;;;34.80;59.80;;;;;;5091576;28;20226;-77
2022/08/30 11:10:14;;;;;;;4.30;3.20;;;33.60;60.10;;;;;;5091297;28;20217;-77
2022/08/30 11:12:54;;;;;;;3.45;3.13;;;33.50;61.40;;;;;;5078102;28;20225;-78
2022/08/30 11:15:26;;;;;;;5.15;3.30;;;33.40;60.80;;;;;;5091404;28;20250;-80
2022/08/30 11:17:59;;;;;;;3.47;3.05;;;33.20;61.40;;;;;;5094038;28;20199;-77
2022/08/30 11:20:38;;;;;;;7.13;3.40;;;32.70;62.40;;;;;;5094658;28;20282;-77
2022/08/30 11:23:28;;;;;;;5.93;3.55;;;32.50;64.20;;;;;;5094721;28;20593;-78
2022/08/30 11:26:03;;;;;;;4.47;3.65;;;32.30;65.80;;;;;;5095381;28;20210;-78
2022/08/30 11:29:04;;;;;;;4.88;3.53;;;31.90;66.20;;;;;;5094282;28;20303;-76
2022/08/30 11:31:37;;;;;;;4.63;3.70;;;31.40;66.30;;;;;;5087688;28;20229;-75
2022/08/30 11:34:08;;;;;;;4.57;3.60;;;30.70;67.20;;;;;;5094546;28;20221;-80
2022/08/30 11:37:09;;;;;;;3.92;3.40;;;30.40;67.60;;;;;;5095441;28;20210;-79
2022/08/30 11:39:55;;;;;;;5.57;3.40;;;30.00;69.20;;;;;;5074600;28;20264;-79
2022/08/30 11:42:35;;;;;;;5.00;3.70;;;29.50;73.00;;;;;;5074604;28;20231;-80
2022/08/30 11:45:41;;;;;;;4.63;3.90;;;29.40;72.60;;;;;;5074323;28;20219;-77
2022/08/30 11:48:54;;;;;;;4.93;3.90;;;29.30;74.60;;;;;;5074663;28;20245;-78
2022/08/30 11:51:55;;;;;;;5.03;3.73;;;29.00;72.70;;;;;;5077817;28;20199;-80
2022/08/30 11:54:55;;;;;;;5.40;4.00;;;29.10;72.50;;;;;;5092883;28;20207;-80
2022/08/30 11:57:31;;;;;;;4.07;3.67;;;29.10;73.50;;;;;;5085100;28;20221;-78
2022/08/30 12:00:09;;;;;;;4.53;3.70;;;29.40;74.20;;;;;;5094371;28;20293;-77
2022/08/30 12:02:55;;;;;;;3.80;3.40;;;29.60;75.90;;;;;;5093867;28;20211;-79
2022/08/30 12:05:50;;;;;;;5.37;3.70;;;29.90;70.50;;;;;;5094163;28;20653;-78
2022/08/30 12:08:50;;;;;;;5.10;3.60;;;29.80;75.30;;;;;;5093519;28;20214;-77
2022/08/30 12:11:59;;;;;;;5.53;3.90;;;30.00;73.70;;;;;;5094976;28;20285;-77
2022/08/30 12:14:39;;;;;;;4.23;3.80;;;30.00;71.90;;;;;;5092994;28;20202;-78
2022/08/30 12:20:05;;;;;;;5.07;3.30;;;29.10;73.90;;;;;;5104142;28;20242;-79
2022/08/30 12:22:36;;;;;;;4.67;3.63;;;29.20;73.00;;;;;;5104508;28;20597;-75
2022/08/30 12:25:16;;;;;;;4.13;3.60;;;29.20;74.40;;;;;;5093351;28;20195;-77
2022/08/30 12:27:45;;;;;;;4.27;3.40;;;29.40;72.70;;;;;;5093131;28;20199;-77
2022/08/30 12:30:26;;;;;;;4.73;3.90;;;29.50;72.70;;;;;;5091420;28;20218;-78
2022/08/30 12:32:57;;;;;;;5.53;3.70;;;29.60;73.00;;;;;;5087867;28;20218;-77
2022/08/30 12:35:28;;;;;;;4.73;3.93;;;29.60;76.80;;;;;;5073278;28;20286;-80
2022/08/30 12:38:00;;;;;;;4.63;3.67;;;29.60;74.20;;;;;;5087379;28;20242;-78
2022/08/30 12:40:33;;;;;;;7.43;4.03;;;29.70;75.80;;;;;;5093185;28;20245;-78
2022/08/30 12:43:04;;;;;;;6.13;3.60;;;29.90;70.70;;;;;;5092447;28;20294;-78
2022/08/30 12:45:41;;;;;;;4.53;3.57;;;29.90;71.00;;;;;;5093432;28;20195;-78
2022/08/30 12:48:13;;;;;;;4.47;3.87;;;29.30;73.30;;;;;;5093107;28;20226;-77
2022/08/30 12:50:50;;;;;;;6.03;4.30;;;28.80;74.90;;;;;;5089910;28;20210;-78
2022/08/30 12:53:26;;;;;;;5.17;3.97;;;29.20;78.90;;;;;;5092464;28;20228;-76
2022/08/30 12:55:59;;;;;;;5.03;3.77;;;29.40;75.90;;;;;;5079618;28;20197;-77
2022/08/30 12:58:42;;;;;;;5.53;3.80;;;29.60;75.00;;;;;;5093541;28;20644;-79
2022/08/30 13:01:18;;;;;;;5.23;3.83;;;29.30;73.20;;;;;;5092905;28;20731;-78
2022/08/30 13:04:01;;;;;;;4.23;3.60;;;29.30;73.70;;;;;;5092901;28;20214;-78
2022/08/30 13:06:51;;;;;;;4.87;3.70;;;29.40;76.50;;;;;;5084651;28;20206;-77
2022/08/30 13:09:26;;;;;;;5.93;4.10;;;29.40;75.30;;;;;;5088203;28;20211;-76
2022/08/30 13:12:01;;;;;;;5.33;4.00;;;29.40;73.40;;;;;;5093253;28;20636;-77
2022/08/30 13:14:33;;;;;;;5.77;4.00;;;29.00;73.70;;;;;;5092423;28;20203;-80
2022/08/30 13:17:27;;;;;;;5.50;3.93;;;28.60;75.00;;;;;;5092685;28;20191;-77
2022/08/30 13:20:05;;;;;;;6.43;3.90;;;28.60;76.30;;;;;;5080912;28;20294;-78
2022/08/30 13:22:35;;;;;;;6.33;4.70;;;28.40;77.00;;;;;;5091365;28;20213;-79
2022/08/30 13:25:04;;;;;;;5.43;4.23;;;28.50;77.00;;;;;;5092544;28;20214;-78
2022/08/30 13:27:33;;;;;;;6.73;5.07;;;28.40;75.20;;;;;;5093285;28;20223;-78
2022/08/30 13:30:08;;;;;;;5.60;4.50;;;28.70;79.40;;;;;;5094034;28;20268;-78
2022/08/30 13:32:43;;;;;;;6.40;4.30;;;28.90;77.50;;;;;;5083739;28;20653;-78
2022/08/30 13:35:12;;;;;;;7.33;4.00;;;28.90;78.20;;;;;;5090916;28;20211;-76
2022/08/30 13:37:42;;;;;;;5.80;4.17;;;28.80;82.00;;;;;;5091862;28;20207;-77
2022/08/30 13:40:19;;;;;;;4.90;4.23;;;28.80;79.20;;;;;;5090597;28;20187;-78
2022/08/30 13:42:49;;;;;;;8.57;4.40;;;28.20;75.20;;;;;;5092509;28;20572;-76
2022/08/30 13:45:19;;;;;;;7.47;4.30;;;27.80;81.30;;;;;;5088996;28;20246;-79
2022/08/30 13:48:10;;;;;;;7.43;4.40;;;27.80;80.90;;;;;;5089502;28;20226;-80
2022/08/30 13:50:39;;;;;;;5.67;4.40;;;27.60;84.70;;;;;;5090261;28;20207;-79
2022/08/30 13:53:07;;;;;;;7.10;4.20;;;27.50;81.30;;;;;;5089991;28;20203;-77
2022/08/30 13:55:36;;;;;;;6.80;3.80;;;27.40;81.00;;;;;;5086020;28;20289;-80
2022/08/30 13:58:04;;;;;;;5.87;4.23;;;27.40;81.10;;;;;;5078133;28;20204;-77
2022/08/30 14:00:34;;;;;;;6.30;4.30;;;27.60;83.60;;;;;;5092120;28;20202;-77
2022/08/30 14:03:05;;;;;;;4.23;3.83;;;27.50;79.30;;;;;;5080081;28;20377;-79
2022/08/30 14:05:38;;;;;;;6.90;3.93;;;27.30;80.00;;;;;;5083319;28;20214;-77
2022/08/30 14:08:22;;;;;;;5.80;4.00;;;27.30;79.80;;;;;;5089153;28;20191;-78
2022/08/30 14:11:11;;;;;;;4.23;3.83;;;26.90;78.20;;;;;;5088516;28;20215;-79
2022/08/30 14:13:42;;;;;;;5.67;3.93;;;26.50;80.50;;;;;;5088358;28;20202;-78
2022/08/30 14:16:31;;;;;;;4.20;3.60;;;26.40;80.00;;;;;;5082585;28;20537;-79
2022/08/30 14:19:00;;;;;;;4.20;3.80;;;26.60;80.90;;;;;;5090379;28;20660;-79
2022/08/30 14:21:30;;;;;;;6.07;3.97;;;26.70;80.30;;;;;;5090282;28;20290;-79
2022/08/30 14:23:59;;;;;;;10.33;3.80;;;26.90;79.60;;;;;;5088407;28;20565;-77
2022/08/30 14:26:37;;;;;;;4.13;3.67;;;26.90;79.40;;;;;;5089801;28;20222;-78
2022/08/30 14:29:09;;;;;;;5.03;3.60;;;26.70;78.30;;;;;;5087656;28;20210;-78
2022/08/30 14:31:38;;;;;;;5.57;4.10;;;26.40;80.60;;;;;;5089833;28;20199;-78
2022/08/30 14:34:08;;;;;;;6.47;3.80;;;26.50;79.00;;;;;;5089009;28;20619;-76
2022/08/30 14:36:42;;;;;;;7.87;4.07;;;26.60;82.00;;;;;;5091024;28;20237;-78
2022/08/30 14:39:13;;;;;;;4.67;3.93;;;26.90;82.10;;;;;;5091122;28;20202;-77
2022/08/30 14:41:44;;;;;;;7.67;4.10;;;27.10;82.30;;;;;;5091775;28;20195;-77
2022/08/30 14:44:13;;;;;;;4.43;3.70;;;27.30;78.50;;;;;;5090213;28;20258;-78
2022/08/30 14:46:42;;;;;;;4.83;4.07;;;27.50;78.70;;;;;;5090910;28;20246;-78
2022/08/30 14:49:11;;;;;;;5.83;4.00;;;27.60;80.40;;;;;;5085600;28;20683;-78
2022/08/30 14:51:41;;;;;;;4.33;3.60;;;27.60;78.80;;;;;;5091737;28;20238;-77
2022/08/30 14:54:10;;;;;;;4.13;3.73;;;27.80;79.50;;;;;;5094465;28;20195;-78
2022/08/30 14:56:39;;;;;;;5.40;3.80;;;27.70;79.20;;;;;;5095460;28;20229;-77
2022/08/30 14:59:08;;;;;;;5.10;4.20;;;27.70;78.10;;;;;;5094901;28;20211;-78
2022/08/30 15:01:40;;;;;;;4.80;4.10;;;27.50;78.70;;;;;;5095419;28;20260;-79
2022/08/30 15:04:09;;;;;;;6.20;4.03;;;27.10;80.00;;;;;;5094583;28;20325;-79
2022/08/30 15:06:41;;;;;;;7.13;4.10;;;27.00;80.20;;;;;;5095356;28;20264;-78
2022/08/30 15:09:13;;;;;;;5.03;3.90;;;27.20;81.00;;;;;;5095250;28;20206;-77
2022/08/30 15:11:43;;;;;;;5.27;3.73;;;27.30;84.60;;;;;;5094194;28;20230;-78
2022/08/30 15:14:14;;;;;;;5.00;4.20;;;27.50;82.50;;;;;;5095348;28;20277;-79
2022/08/30 15:16:43;;;;;;;4.63;3.90;;;27.50;81.10;;;;;;5095069;28;20688;-78
2022/08/30 15:19:13;;;;;;;5.07;3.60;;;27.50;80.70;;;;;;5094451;28;20639;-79
2022/08/30 15:21:45;;;;;;;4.60;3.53;;;27.30;81.40;;;;;;5093348;28;20203;-80
2022/08/30 15:24:18;;;;;;;5.53;3.40;;;27.30;77.80;;;;;;5094792;28;20219;-80
2022/08/30 15:26:52;;;;;;;6.03;4.00;;;27.30;81.40;;;;;;5095284;28;20207;-79
2022/08/30 15:29:22;;;;;;;5.70;3.90;;;27.30;79.70;;;;;;5094522;28;20260;-78
2022/08/30 15:31:50;;;;;;;5.63;4.20;;;27.40;78.90;;;;;;5094067;28;20289;-76
2022/08/30 15:34:23;;;;;;;4.43;3.77;;;27.30;77.60;;;;;;5094196;28;20690;-78
2022/08/30 15:36:57;;;;;;;6.33;3.83;;;27.20;79.90;;;;;;5094471;28;20606;-79
2022/08/30 15:39:26;;;;;;;5.43;3.77;;;27.20;78.80;;;;;;5093622;28;20211;-78
2022/08/30 15:41:56;;;;;;;3.73;3.33;;;27.10;77.90;;;;;;5094449;28;20560;-80
2022/08/30 15:44:28;;;;;;;6.00;3.90;;;27.00;77.10;;;;;;5093839;28;20225;-78
2022/08/30 15:46:57;;;;;;;4.23;3.83;;;26.80;79.20;;;;;;5092865;28;20235;-77
2022/08/30 15:49:25;;;;;;;5.60;3.77;;;26.80;79.80;;;;;;5094068;28;20649;-80
2022/08/30 15:51:59;;;;;;;6.03;4.20;;;26.70;79.40;;;;;;5094103;28;20207;-80
2022/08/30 15:54:28;;;;;;;5.90;4.10;;;26.80;81.80;;;;;;5094697;28;20261;-79
2022/08/30 15:56:58;;;;;;;4.97;3.93;;;26.60;78.30;;;;;;5092920;28;20297;-80
2022/08/30 15:59:27;;;;;;;4.97;3.80;;;26.60;79.80;;;;;;5093630;28;20644;-79
2022/08/30 16:01:55;;;;;;;4.23;3.83;;;26.50;81.70;;;;;;5093871;28;20260;-79
2022/08/30 16:04:24;;;;;;;4.97;3.67;;;26.40;80.20;;;;;;5092553;28;20206;-78
2022/08/30 16:06:53;;;;;;;4.53;3.60;;;26.40;81.70;;;;;;5093704;28;20653;-81
2022/08/30 16:09:25;;;;;;;4.97;4.07;;;26.40;83.20;;;;;;5093518;28;20695;-79
2022/08/30 16:12:00;;;;;;;5.77;3.93;;;26.40;81.80;;;;;;5093263;28;20275;-78
2022/08/30 16:14:31;;;;;;;5.00;4.00;;;26.30;80.30;;;;;;5094346;28;20191;-79
2022/08/30 16:17:00;;;;;;;4.73;3.77;;;26.10;81.40;;;;;;5093352;28;20286;-81
2022/08/30 16:19:28;;;;;;;4.13;3.73;;;26.00;82.70;;;;;;5093649;28;20206;-79
2022/08/30 16:21:57;;;;;;;4.33;3.80;;;26.00;83.10;;;;;;5092099;28;20232;-79
2022/08/30 16:24:27;;;;;;;5.37;3.90;;;25.90;82.80;;;;;;5092186;28;20240;-78
2022/08/30 16:26:55;;;;;;;5.47;3.90;;;25.70;85.20;;;;;;5091042;28;20290;-79
2022/08/30 16:29:23;;;;;;;4.57;4.00;;;25.60;84.40;;;;;;5093304;28;20308;-79
2022/08/30 16:31:54;;;;;;;6.67;4.57;;;25.60;85.30;;;;;;5090248;28;20203;-80
2022/08/30 16:34:22;;;;;;;6.93;4.27;;;25.50;84.30;;;;;;5090175;28;20310;-78
2022/08/30 16:36:52;;;;;;;6.60;4.30;;;25.40;85.30;;;;;;5091712;28;20195;-78
2022/08/30 16:39:21;;;;;;;5.03;4.00;;;25.30;85.80;;;;;;5092142;28;20282;-79
2022/08/30 16:41:50;;;;;;;5.73;4.23;;;25.20;86.30;;;;;;5093315;28;20209;-77
2022/08/30 16:44:19;;;;;;;5.07;4.10;;;25.20;86.70;;;;;;5093180;28;20671;-81
2022/08/30 16:46:50;;;;;;;6.60;4.40;;;25.10;87.60;;;;;;5090875;28;20317;-79
2022/08/30 16:49:21;;;;;;;7.07;4.30;;;25.10;87.70;;;;;;5091163;28;20203;-80
2022/08/30 16:51:56;;;;;;;5.90;4.50;;;24.90;87.10;;;;;;5092043;28;20242;-79
2022/08/30 16:54:25;;;;;;;5.10;4.17;;;24.80;88.20;;;;;;5092902;28;20211;-77
2022/08/30 16:56:54;;;;;;;5.53;4.30;;;24.70;89.90;;;;;;5091274;28;20207;-78
2022/08/30 16:59:24;;;;;;;7.67;4.20;;;24.60;89.70;;;;;;5092620;28;20195;-81
2022/08/30 17:01:52;;;;;;;6.30;4.40;;;24.40;90.40;;;;;;5092238;28;20236;-78
2022/08/30 17:04:21;;;;;;;5.20;3.97;;;24.30;90.50;;;;;;5093007;28;20226;-79
2022/08/30 17:06:50;;;;;;;6.63;4.40;;;24.20;91.00;;;;;;5092170;28;20652;-78
2022/08/30 17:09:19;;;;;;;5.67;4.47;;;24.00;91.40;;;;;;5092818;28;20214;-77
2022/08/30 17:11:49;;;;;;;6.33;4.43;;;23.90;91.90;;;;;;5092274;28;20187;-79
2022/08/30 17:14:19;;;;;;;5.63;4.60;;;23.80;92.30;;;;;;5090995;28;20264;-80
2022/08/30 17:16:56;;;;;;;4.90;4.37;;;23.80;92.70;;;;;;5092318;28;20191;-78
2022/08/30 17:19:27;;;;;;;6.90;4.67;;;23.60;93.10;;;;;;5092142;28;20206;-80
2022/08/30 17:21:56;;;;;;;6.17;4.80;;;23.50;93.40;;;;;;5091503;28;20246;-78
2022/08/30 17:24:25;;;;;;;8.17;4.60;;;23.50;93.70;;;;;;5091395;28;20661;-78
2022/08/30 17:26:54;;;;;;;5.33;4.70;;;23.40;94.20;;;;;;5092676;28;20226;-79
2022/08/30 17:29:24;;;;;;;7.20;5.10;;;23.40;94.50;;;;;;5090710;28;20300;-78
2022/08/30 17:31:52;;;;;;;6.30;5.00;;;23.20;94.90;;;;;;5092128;28;20355;-78
2022/08/30 17:34:21;;;;;;;5.67;4.83;;;23.10;95.30;;;;;;5092757;28;20194;-78
2022/08/30 17:36:55;;;;;;;11.07;5.23;;;23.10;96.00;;;;;;5092323;28;20195;-76
2022/08/30 17:39:24;;;;;;;8.07;5.10;;;22.90;96.50;;;;;;5091643;28;20191;-78
2022/08/30 17:41:53;;;;;;;6.67;5.20;;;22.80;97.40;;;;;;5092360;28;20223;-78
2022/08/30 17:44:27;;;;;;;6.50;4.73;;;22.70;97.60;;;;;;5091853;28;20233;-79
2022/08/30 17:46:58;;;;;;;6.37;5.10;;;22.50;98.60;;;;;;5086730;28;20741;-77
2022/08/30 17:49:27;;;;;;;8.00;5.30;;;22.40;99.90;;;;;;5084228;28;20194;-80
2022/08/30 17:51:57;;;;;;;9.97;5.67;;;22.30;99.90;;;;;;5091729;28;20213;-77
2022/08/30 17:54:26;;;;;;;8.80;6.40;;;22.10;99.90;;;;;;5084131;28;20198;-77
2022/08/30 17:56:54;;;;;;;6.23;5.30;;;22.00;99.90;;;;;;5090659;28;20649;-77
2022/08/30 17:59:25;;;;;;;9.10;5.43;;;21.80;99.90;;;;;;5083203;28;20290;-76
2022/08/30 18:01:56;;;;;;;9.20;5.47;;;21.70;99.90;;;;;;5071891;28;20191;-78
2022/08/30 18:04:26;;;;;;;9.37;5.70;;;21.60;99.90;;;;;;5077620;28;20307;-78
2022/08/30 18:06:55;;;;;;;10.47;5.30;;;21.40;99.90;;;;;;5091702;28;20283;-79
2022/08/30 18:09:23;;;;;;;7.40;5.80;;;21.30;99.90;;;;;;5091364;28;20720;-78
2022/08/30 18:11:51;;;;;;;8.03;5.50;;;21.20;99.90;;;;;;5091367;28;20230;-78
2022/08/30 18:14:24;;;;;;;7.33;5.37;;;21.10;99.90;;;;;;5092098;28;20191;-77
2022/08/30 18:16:53;;;;;;;7.80;5.53;;;21.10;99.90;;;;;;5091174;28;20721;-79
2022/08/30 18:19:22;;;;;;;7.47;5.67;;;21.00;99.90;;;;;;5091598;28;20195;-77
2022/08/30 18:21:52;;;;;;;7.60;5.20;;;20.90;99.90;;;;;;5088911;28;20211;-78
2022/08/30 18:24:24;;;;;;;8.63;5.87;;;20.80;99.90;;;;;;5087591;28;20191;-77
2022/08/30 18:26:53;;;;;;;7.40;5.50;;;20.70;99.90;;;;;;5090458;28;20215;-79
2022/08/30 18:29:21;;;;;;;8.87;6.00;;;20.70;99.90;;;;;;5090264;28;20649;-78
2022/08/30 18:32:00;;;;;;;9.97;6.10;;;20.60;99.90;;;;;;5090732;28;20233;-79
2022/08/30 18:34:30;;;;;;;8.00;5.90;;;20.50;99.90;;;;;;5091210;28;20285;-77
2022/08/30 18:36:58;;;;;;;10.07;6.37;;;20.40;99.90;;;;;;5088104;28;20749;-77
2022/08/30 18:39:28;;;;;;;10.07;6.30;;;20.30;99.90;;;;;;5081719;28;20231;-79
2022/08/30 18:42:02;;;;;;;8.40;6.17;;;20.20;99.90;;;;;;5091468;28;20187;-78
2022/08/30 18:44:31;;;;;;;8.83;6.13;;;20.20;99.90;;;;;;5091600;28;20211;-79
2022/08/30 18:47:21;;;;;;;8.63;6.07;;;20.10;99.90;;;;;;5056996;28;20572;-76
2022/08/30 18:49:52;;;;;;;7.97;6.30;;;20.10;99.90;;;;;;5085513;28;20215;-77
2022/08/30 18:52:21;;;;;;;8.17;5.80;;;20.00;99.90;;;;;;5063384;28;20211;-76
2022/08/30 18:54:50;;;;;;;8.00;6.20;;;19.90;99.90;;;;;;5070390;28;20207;-78
2022/08/30 18:57:20;;;;;;;8.27;5.90;;;19.80;99.90;;;;;;5071319;28;20212;-77
2022/08/30 18:59:49;;;;;;;7.10;5.80;;;19.80;99.90;;;;;;5070562;28;20203;-77
2022/08/30 19:02:18;;;;;;;8.67;5.63;;;19.70;99.90;;;;;;5071060;28;20213;-78
2022/08/30 19:04:47;;;;;;;7.03;6.00;;;19.60;99.90;;;;;;5060160;28;20327;-79
2022/08/30 19:07:18;;;;;;;8.10;5.93;;;19.60;99.90;;;;;;5052322;28;20257;-79
2022/08/30 19:09:47;;;;;;;10.60;6.00;;;19.60;99.90;;;;;;5070973;28;20192;-77
2022/08/30 19:12:15;;;;;;;7.70;6.20;;;19.50;99.90;;;;;;5071367;28;20283;-76
2022/08/30 19:14:44;;;;;;;8.40;5.70;;;19.50;99.90;;;;;;5070935;28;20225;-78
2022/08/30 19:17:13;;;;;;;6.17;5.30;;;19.40;99.90;;;;;;5070966;28;20275;-78
2022/08/30 19:19:42;;;;;;;8.77;5.70;;;19.40;99.90;;;;;;5071141;28;20219;-77
2022/08/30 19:22:17;;;;;;;7.13;5.73;;;19.30;99.90;;;;;;5070728;28;20650;-78
2022/08/30 19:24:46;;;;;;;6.13;5.53;;;19.30;99.90;;;;;;5070840;28;20654;-76
2022/08/30 19:27:18;;;;;;;7.07;5.73;;;19.30;99.90;;;;;;5063002;28;20221;-77
2022/08/30 19:29:52;;;;;;;8.00;5.93;;;19.20;99.90;;;;;;5070866;28;20280;-76
2022/08/30 19:32:20;;;;;;;6.90;5.80;;;19.20;99.90;;;;;;5071048;28;20211;-77
2022/08/30 19:34:49;;;;;;;7.10;5.83;;;19.20;99.90;;;;;;5068769;28;20204;-76
2022/08/30 19:37:19;;;;;;;6.70;5.77;;;19.10;99.90;;;;;;5071346;28;20227;-79
2022/08/30 19:39:48;;;;;;;8.53;6.10;;;19.10;99.90;;;;;;5074521;28;20203;-77
2022/08/30 19:42:16;;;;;;;7.80;6.20;;;19.00;99.90;;;;;;5063797;28;20272;-78
2022/08/30 19:44:44;;;;;;;8.63;6.37;;;18.90;99.90;;;;;;5055528;28;20209;-76
2022/08/30 19:47:13;;;;;;;7.50;6.00;;;18.90;99.90;;;;;;5055077;28;20235;-77
2022/08/30 19:49:41;;;;;;;8.07;7.13;;;18.80;99.90;;;;;;5058655;28;20299;-77
2022/08/30 19:52:10;;;;;;;9.60;6.90;;;18.70;99.90;;;;;;5068944;28;20290;-78
2022/08/30 19:54:41;;;;;;;7.97;6.23;;;18.70;99.90;;;;;;5074306;28;20264;-76
2022/08/30 19:57:10;;;;;;;8.43;6.60;;;18.60;99.90;;;;;;5074737;28;20200;-77